Parowan, Utah
Current Conditions -  °F | °C
As of 10:53 PM on Monday 20 Oct 2014 (Local Time) from KCDC Reporting Station
Clear Clear  
Wind Chill: 58°   Ceiling: Unl
Heat Index: 58°   Visibility: 10mi
Dew Point: 37°   Wind: 3mph
Humidity: 46%   Direction: 170°S
Pressure: 30.03"   Gusts: NA
Location:  37.84°N, 112.83°W
Report Text: KCDC 210453Z AUTO 17003KT 10SM CLR 14/03 A3003 RMK AO2 SLP113 T01440028 TSNO
Loading
Personal Weather Stations






























Interactive Weather Map
Tropical Storm Tracking
New forecast layout! Learn more

10-Day Weather Forecast

Advertisements
Track Severe Weather on mobile